Time;durP1;ratioP1;P1;durP2;ratioP2;P2;SDS_P1;SDS_P2;PMS_P1;PMS_P2;Temp;Humidity;BMP_temperature;BMP_pressure;BME280_temperature;BME280_humidity;BME280_pressure;Samples;Min_cycle;Max_cycle;Signal;HPM_P1;HPM_P2
2022/12/08 00:00:17;;;;;;;2.10;1.48;;;;;;;18.96;70.72;96129.00;2070892;28;20198;-68
2022/12/08 00:01:25;;;;;;;2.53;1.55;;;;;;;18.96;70.79;96128.13;2068697;28;20210;-68
2022/12/08 00:02:26;;;;;;;3.25;1.55;;;;;;;18.96;70.88;96126.34;2069108;28;20708;-68
2022/12/08 00:03:28;;;;;;;2.10;1.60;;;;;;;18.93;70.70;96119.53;2068923;28;20260;-68
2022/12/08 00:09:20;;;;;;;2.00;1.48;;;;;;;18.97;70.82;96119.25;2069443;28;20259;-68
2022/12/08 00:10:06;;;;;;;3.95;1.40;;;;;;;19.00;70.42;96117.16;2075121;28;20629;-68
2022/12/08 00:11:27;;;;;;;2.60;1.67;;;;;;;18.97;70.34;96114.81;2075472;28;20736;-68
2022/12/08 00:12:29;;;;;;;4.25;1.50;;;;;;;18.98;70.53;96105.06;2071545;28;20225;-68
2022/12/08 00:13:30;;;;;;;3.35;1.55;;;;;;;19.07;70.56;96118.31;2069951;28;20198;-68
2022/12/08 00:14:34;;;;;;;2.45;1.50;;;;;;;19.08;70.39;96119.16;2069871;28;20229;-68
2022/12/08 00:15:36;;;;;;;2.53;1.45;;;;;;;19.06;70.46;96116.63;2068685;28;20229;-68
2022/12/08 00:16:37;;;;;;;5.25;1.52;;;;;;;19.01;70.46;96099.50;2069199;28;20712;-68
2022/12/08 00:17:39;;;;;;;2.17;1.40;;;;;;;19.09;70.33;96113.72;2070338;28;20198;-68
2022/12/08 00:18:40;;;;;;;1.83;1.10;;;;;;;19.02;70.48;96094.06;2070180;28;20699;-68
2022/12/08 00:19:43;;;;;;;2.58;1.52;;;;;;;19.13;70.42;96113.47;2069686;28;20252;-68
2022/12/08 00:20:44;;;;;;;2.20;1.40;;;;;;;19.06;70.36;96100.75;2067889;28;20202;-68
2022/12/08 00:21:46;;;;;;;2.15;1.40;;;;;;;19.12;70.24;96109.13;2075736;28;20317;-68
2022/12/08 00:22:47;;;;;;;2.45;1.42;;;;;;;19.07;70.30;96105.09;2077973;28;20288;-67
2022/12/08 00:23:49;;;;;;;2.85;1.83;;;;;;;19.12;70.32;96109.13;2078851;28;20225;-68
2022/12/08 00:24:50;;;;;;;3.55;1.55;;;;;;;19.12;70.40;96107.31;2078285;28;20243;-68
2022/12/08 00:25:52;;;;;;;2.50;1.20;;;;;;;19.11;70.24;96097.72;2079792;28;20201;-68
2022/12/08 00:26:53;;;;;;;1.88;1.30;;;;;;;19.14;70.32;96100.09;2078827;28;20237;-68
2022/12/08 00:27:54;;;;;;;2.35;1.42;;;;;;;19.15;70.42;96100.94;2079844;28;20699;-68
2022/12/08 00:28:56;;;;;;;2.30;1.50;;;;;;;19.08;70.04;96090.03;2079589;28;20228;-68
2022/12/08 00:29:58;;;;;;;2.80;1.60;;;;;;;19.16;70.31;96094.66;2079222;28;20205;-68
2022/12/08 00:31:05;;;;;;;2.00;1.30;;;;;;;19.13;70.15;96098.41;2079639;28;20198;-68
2022/12/08 00:32:06;;;;;;;1.80;1.40;;;;;;;19.15;70.10;96093.00;2071448;28;20680;-68
2022/12/08 00:33:09;;;;;;;3.45;1.77;;;;;;;19.18;69.82;96100.66;2071418;28;20312;-68
2022/12/08 00:34:12;;;;;;;2.70;1.50;;;;;;;19.16;70.06;96098.16;2071121;28;20201;-68
2022/12/08 00:35:14;;;;;;;1.73;1.10;;;;;;;19.18;69.99;96098.00;2071993;28;20206;-68
2022/12/08 00:36:18;;;;;;;2.85;1.33;;;;;;;19.16;69.81;96097.31;2070302;28;20338;-68
2022/12/08 00:37:20;;;;;;;2.17;1.40;;;;;;;19.13;70.11;96090.47;2071640;28;20216;-68
2022/12/08 00:38:21;;;;;;;2.42;1.48;;;;;;;19.06;70.14;96082.25;2072300;28;20324;-68
2022/12/08 00:39:23;;;;;;;2.10;1.10;;;;;;;19.07;70.16;96089.22;2071706;28;20206;-68
2022/12/08 00:40:24;;;;;;;2.20;1.40;;;;;;;19.12;69.92;96094.09;2072315;28;20237;-68
2022/12/08 00:42:50;;;;;;;2.40;1.50;;;;;;;19.13;69.94;96094.94;2072265;28;20630;-67
2022/12/08 00:43:51;;;;;;;3.05;1.40;;;;;;;19.12;69.97;96091.44;2072159;28;20201;-68
2022/12/08 00:44:53;;;;;;;4.57;1.50;;;;;;;19.16;70.01;96094.66;2071493;28;20210;-68
2022/12/08 00:45:55;;;;;;;2.33;1.55;;;;;;;19.12;70.02;96090.63;2070470;28;20230;-69
2022/12/08 00:46:56;;;;;;;2.50;1.42;;;;;;;19.06;70.07;96087.53;2069476;28;20267;-68
2022/12/08 00:47:58;;;;;;;2.85;1.40;;;;;;;19.11;70.12;96094.22;2072033;28;20198;-68
2022/12/08 00:48:59;;;;;;;2.50;1.35;;;;;;;19.12;69.74;96098.56;2069527;28;20229;-68
2022/12/08 00:50:01;;;;;;;2.83;1.73;;;;;;;19.09;69.98;96097.84;2069932;28;20237;-68
2022/12/08 00:51:03;;;;;;;2.70;1.50;;;;;;;19.06;70.01;96084.06;2071501;28;20209;-68
2022/12/08 00:52:04;;;;;;;2.10;1.10;;;;;;;19.08;69.99;96087.41;2071596;28;20547;-68
2022/12/08 00:53:06;;;;;;;3.53;1.90;;;;;;;19.03;69.97;96079.88;2069920;28;20290;-68
2022/12/08 00:54:07;;;;;;;2.13;1.27;;;;;;;19.09;69.98;96086.44;2070425;28;20816;-68
2022/12/08 00:55:09;;;;;;;1.77;1.08;;;;;;;19.09;70.04;96086.44;2070933;28;20698;-68
2022/12/08 00:56:10;;;;;;;2.50;1.60;;;;;;;19.03;70.21;96081.66;2070157;28;20209;-68
2022/12/08 00:57:12;;;;;;;3.22;1.92;;;;;;;19.12;70.23;96095.91;2070960;28;20197;-68
2022/12/08 00:58:13;;;;;;;1.98;1.35;;;;;;;19.14;69.76;96094.78;2070517;28;20347;-68
2022/12/08 00:59:18;;;;;;;2.00;1.45;;;;;;;19.13;69.75;96098.41;2070843;28;20208;-68
2022/12/08 01:00:19;;;;;;;2.22;1.40;;;;;;;19.06;69.94;96082.25;2071290;28;20550;-68
2022/12/08 01:01:21;;;;;;;2.15;1.50;;;;;;;19.13;70.13;96092.28;2069617;28;22175;-68
2022/12/08 01:02:23;;;;;;;2.10;1.20;;;;;;;19.09;69.90;96084.59;2070821;28;20201;-68
2022/12/08 01:03:25;;;;;;;2.40;1.27;;;;;;;19.09;70.01;96087.25;2071053;28;20198;-68
2022/12/08 01:04:26;;;;;;;2.67;1.70;;;;;;;19.07;69.85;96088.34;2068855;28;20209;-69
2022/12/08 01:05:28;;;;;;;1.95;1.40;;;;;;;19.13;70.04;96092.28;2062009;28;20194;-68
2022/12/08 01:06:30;;;;;;;2.88;1.27;;;;;;;19.06;69.89;96076.94;2070899;28;20229;-68
2022/12/08 01:07:31;;;;;;;6.80;1.40;;;;;;;19.12;69.89;96094.09;2071514;28;20186;-68
2022/12/08 01:08:35;;;;;;;2.88;1.30;;;;;;;19.13;69.82;96095.75;2072760;28;20286;-68
2022/12/08 01:09:36;;;;;;;5.70;1.60;;;;;;;19.07;70.00;96080.41;2072715;28;20281;-68
2022/12/08 01:10:38;;;;;;;2.08;1.20;;;;;;;19.12;69.97;96090.63;2071132;28;20681;-68
2022/12/08 01:11:40;;;;;;;1.73;1.33;;;;;;;19.09;69.72;96078.50;2070943;28;20345;-68
2022/12/08 01:12:41;;;;;;;1.42;1.00;;;;;;;19.14;69.83;96093.97;2071746;28;20748;-68
2022/12/08 01:13:44;;;;;;;2.70;1.60;;;;;;;19.12;69.82;96091.44;2070065;28;20195;-68
2022/12/08 01:14:45;;;;;;;1.77;1.10;;;;;;;19.04;69.98;96081.53;2069039;28;20201;-67
2022/12/08 01:15:47;;;;;;;5.22;1.05;;;;;;;19.08;69.94;96085.59;2071269;28;20225;-68
2022/12/08 01:16:48;;;;;;;2.28;1.30;;;;;;;19.06;69.73;96082.25;2070123;28;20751;-67
2022/12/08 01:17:50;;;;;;;3.15;1.80;;;;;;;19.13;69.69;96090.47;2071412;28;20253;-68
2022/12/08 01:18:52;;;;;;;2.08;1.35;;;;;;;19.15;69.75;96093.00;2075973;28;20695;-68
2022/12/08 01:19:54;;;;;;;2.80;1.45;;;;;;;19.17;69.61;96088.41;2074863;28;20205;-68
2022/12/08 01:21:04;;;;;;;1.77;1.10;;;;;;;18.93;69.65;96052.53;2068401;28;20292;-68
2022/12/08 01:22:06;;;;;;;2.08;1.27;;;;;;;19.16;69.57;96089.34;2069799;28;20229;-68
2022/12/08 01:23:07;;;;;;;1.80;1.25;;;;;;;19.06;69.58;96076.94;2070645;28;20232;-68
2022/12/08 01:24:14;;;;;;;2.35;1.33;;;;;;;19.06;69.66;96076.94;2076473;28;20209;-68
2022/12/08 01:25:15;;;;;;;2.30;1.42;;;;;;;19.06;69.66;96076.94;2073204;28;20237;-68
2022/12/08 01:26:18;;;;;;;2.05;1.33;;;;;;;19.17;69.72;96094.53;2069681;28;20335;-68
2022/12/08 01:27:19;;;;;;;2.70;1.15;;;;;;;19.16;69.49;96089.34;2070291;28;20240;-68
2022/12/08 01:28:21;;;;;;;2.58;1.45;;;;;;;19.04;69.74;96070.94;2070006;28;20205;-68
2022/12/08 01:29:22;;;;;;;2.25;1.25;;;;;;;19.07;69.47;96081.28;2071317;28;20312;-68
2022/12/08 01:30:24;;;;;;;3.40;1.85;;;;;;;19.12;69.58;96086.16;2071100;28;20236;-68
2022/12/08 01:31:26;;;;;;;1.70;1.20;;;;;;;19.11;69.50;96083.63;2069317;28;20218;-68
2022/12/08 01:32:30;;;;;;;2.25;1.40;;;;;;;19.14;69.50;96093.97;2071679;28;20411;-68
2022/12/08 01:33:32;;;;;;;3.10;1.25;;;;;;;19.08;69.70;96084.75;2070960;28;20200;-68
2022/12/08 01:34:33;;;;;;;1.60;1.15;;;;;;;19.14;69.50;96092.16;2070947;28;20202;-68
2022/12/08 01:35:35;;;;;;;2.10;1.35;;;;;;;19.13;69.66;96085.19;2072423;28;20213;-68
2022/12/08 01:36:37;;;;;;;1.88;1.30;;;;;;;19.12;69.75;96087.97;2070421;28;20221;-67
2022/12/08 01:37:39;;;;;;;1.90;1.30;;;;;;;19.13;69.76;96089.66;2070360;28;20243;-68
2022/12/08 01:38:40;;;;;;;2.63;1.73;;;;;;;19.08;69.49;96077.66;2070879;28;20743;-67
2022/12/08 01:39:42;;;;;;;3.22;1.80;;;;;;;19.08;69.66;96082.97;2068638;28;20715;-68
2022/12/08 01:40:43;;;;;;;2.42;1.33;;;;;;;19.15;69.44;96091.19;2070451;28;20288;-68
2022/12/08 01:41:46;;;;;;;1.85;1.02;;;;;;;19.06;69.82;96073.47;2071308;28;20581;-68
2022/12/08 01:42:48;;;;;;;1.98;1.60;;;;;;;19.10;69.58;96082.81;2073453;28;20201;-68
2022/12/08 01:43:58;;;;;;;2.97;1.27;;;;;;;19.12;69.60;96085.31;2071559;28;20252;-68
2022/12/08 01:45:03;;;;;;;2.40;1.45;;;;;;;19.13;69.55;96084.34;2070714;28;20205;-68
2022/12/08 01:46:05;;;;;;;3.10;1.20;;;;;;;19.04;69.70;96067.47;2068057;28;20248;-68
2022/12/08 01:47:07;;;;;;;2.22;1.40;;;;;;;19.09;69.72;96076.66;2071702;28;20313;-68
2022/12/08 01:48:29;;;;;;;2.80;1.35;;;;;;;19.14;69.75;96083.38;2071165;28;20237;-68
2022/12/08 01:49:34;;;;;;;2.08;1.27;;;;;;;19.13;69.58;96081.72;2070178;28;20691;-69
2022/12/08 01:50:41;;;;;;;1.88;1.30;;;;;;;19.14;69.65;96078.09;2070364;28;20946;-68
2022/12/08 01:51:45;;;;;;;1.90;1.20;;;;;;;19.15;69.72;96079.78;2070726;28;20300;-68
2022/12/08 01:53:03;;;;;;;3.28;1.38;;;;;;;19.07;69.35;96062.75;2070129;28;20233;-68
2022/12/08 01:54:06;;;;;;;2.55;1.48;;;;;;;19.18;69.48;96079.50;2079036;28;20205;-68
2022/12/08 01:55:16;;;;;;;3.45;1.77;;;;;;;19.12;69.45;96072.91;2079527;28;20200;-67
2022/12/08 01:56:27;;;;;;;6.65;1.20;;;;;;;19.16;69.60;96078.78;2070142;28;21203;-68
2022/12/08 01:57:35;;;;;;;2.00;1.13;;;;;;;19.16;69.34;96079.63;2071359;28;20285;-68
2022/12/08 01:58:40;;;;;;;2.13;1.20;;;;;;;19.11;69.65;96071.25;2071536;28;20194;-68
2022/12/08 01:59:50;;;;;;;2.45;1.30;;;;;;;19.12;69.34;96080.84;2070246;28;20275;-68
2022/12/08 02:00:51;;;;;;;2.33;1.52;;;;;;;19.12;69.30;96074.75;2070492;28;20293;-68
2022/12/08 02:01:53;;;;;;;2.08;1.10;;;;;;;19.15;69.51;96077.94;2068500;28;20301;-68
2022/12/08 02:03:01;;;;;;;2.00;1.27;;;;;;;19.11;69.55;96076.56;2070797;28;20197;-68
2022/12/08 02:04:04;;;;;;;2.00;1.17;;;;;;;19.13;69.53;96076.41;2069851;28;20197;-68
2022/12/08 02:05:06;;;;;;;2.65;1.30;;;;;;;19.06;69.42;96063.72;2071514;28;20206;-68
2022/12/08 02:06:08;;;;;;;1.60;1.27;;;;;;;19.14;69.28;96078.91;2069051;28;20202;-68
2022/12/08 02:07:12;;;;;;;2.53;1.33;;;;;;;19.05;69.39;96050.63;2070973;28;20240;-68
2022/12/08 02:08:14;;;;;;;1.90;1.40;;;;;;;19.11;69.47;96059.81;2070905;28;20216;-68
2022/12/08 02:09:16;;;;;;;1.70;1.10;;;;;;;19.14;69.16;96065.69;2070016;28;20209;-68
2022/12/08 02:10:20;;;;;;;1.98;1.27;;;;;;;19.16;69.42;96065.53;2071072;28;20205;-68
2022/12/08 02:11:22;;;;;;;2.15;1.10;;;;;;;19.13;69.31;96053.44;2070009;28;20202;-68
2022/12/08 02:12:23;;;;;;;2.00;1.20;;;;;;;19.07;69.29;96040.72;2070306;28;20186;-68
2022/12/08 02:13:25;;;;;;;1.90;1.17;;;;;;;19.13;69.51;96052.59;2069445;28;20197;-68
2022/12/08 02:14:27;;;;;;;2.70;1.42;;;;;;;19.09;69.36;96047.56;2067087;28;20679;-68
2022/12/08 02:15:53;;;;;;;1.67;1.20;;;;;;;19.15;69.28;96048.84;2070701;28;20194;-67
2022/12/08 02:17:11;;;;;;;3.05;1.27;;;;;;;19.14;69.21;96051.63;2070148;28;20225;-68
2022/12/08 02:18:41;;;;;;;2.30;1.45;;;;;;;19.13;69.37;96048.13;2069804;28;20198;-68
2022/12/08 02:19:45;;;;;;;2.05;1.45;;;;;;;19.14;69.32;96051.63;2068563;28;20309;-68
2022/12/08 02:20:51;;;;;;;2.13;1.27;;;;;;;19.11;69.51;96046.59;2070766;28;20712;-68
2022/12/08 02:22:19;;;;;;;2.28;1.48;;;;;;;19.13;69.47;96047.31;2078552;28;20315;-68
2022/12/08 02:23:32;;;;;;;1.95;1.40;;;;;;;19.12;69.32;96045.63;2074172;28;20293;-68
2022/12/08 02:24:39;;;;;;;2.17;1.20;;;;;;;19.07;69.59;96052.19;2069673;28;20229;-68
2022/12/08 02:25:53;;;;;;;2.13;1.50;;;;;;;19.08;69.42;96045.06;2069927;28;20288;-68
2022/12/08 02:27:09;;;;;;;2.05;1.15;;;;;;;19.11;69.54;96043.94;2078704;28;20311;-68
2022/12/08 02:28:47;;;;;;;2.78;1.15;;;;;;;19.06;69.26;96028.50;2077687;28;20279;-68
2022/12/08 02:30:04;;;;;;;2.40;1.10;;;;;;;19.13;69.25;96044.66;2069432;28;20205;-68
2022/12/08 02:31:18;;;;;;;2.65;1.30;;;;;;;19.15;69.44;96037.44;2067984;28;20205;-68
2022/12/08 02:33:01;;;;;;;2.70;1.42;;;;;;;19.15;69.25;96032.16;2071061;28;20209;-67
2022/12/08 02:34:35;;;;;;;2.25;1.40;;;;;;;19.15;69.26;96037.44;2070134;28;20693;-67
2022/12/08 02:35:54;;;;;;;1.75;1.20;;;;;;;19.14;69.36;96031.28;2061667;28;20194;-68
2022/12/08 02:37:04;;;;;;;2.10;1.20;;;;;;;19.13;69.20;96028.78;2070021;28;20225;-68
2022/12/08 02:38:26;;;;;;;1.70;1.15;;;;;;;19.15;69.36;96027.69;2069942;28;20198;-68
2022/12/08 02:39:43;;;;;;;2.90;1.30;;;;;;;19.14;69.37;96031.28;2069502;28;20645;-68
2022/12/08 02:41:00;;;;;;;2.72;1.40;;;;;;;19.13;69.37;96026.13;2071566;28;20213;-68
2022/12/08 02:42:08;;;;;;;2.35;1.25;;;;;;;19.15;69.22;96034.78;2071058;28;20231;-68
2022/12/08 02:43:16;;;;;;;2.33;1.40;;;;;;;19.17;69.49;96032.81;2068678;28;20206;-67
2022/12/08 02:44:40;;;;;;;1.80;1.10;;;;;;;18.94;69.23;95993.38;2070783;28;20293;-68
2022/12/08 02:45:51;;;;;;;2.03;1.30;;;;;;;19.09;69.37;96025.56;2069804;28;20315;-67
2022/12/08 02:47:22;;;;;;;2.97;1.30;;;;;;;19.11;69.32;96025.44;2077551;28;20641;-68
2022/12/08 02:48:28;;;;;;;2.25;1.30;;;;;;;19.15;69.37;96032.97;2072096;28;20296;-68
2022/12/08 02:49:34;;;;;;;2.08;1.10;;;;;;;19.15;69.36;96029.50;2070685;28;20811;-67
2022/12/08 02:50:35;;;;;;;1.90;1.10;;;;;;;19.02;69.19;96014.72;2068279;28;20209;-68
2022/12/08 02:51:37;;;;;;;2.97;1.38;;;;;;;19.15;69.25;96025.03;2070140;28;20213;-68
2022/12/08 02:52:44;;;;;;;2.95;1.10;;;;;;;19.16;69.09;96023.22;2071101;28;20209;-68
2022/12/08 02:53:47;;;;;;;2.15;1.30;;;;;;;19.07;69.31;96016.91;2070247;28;20288;-68
2022/12/08 02:55:00;;;;;;;2.63;1.27;;;;;;;19.15;69.31;96030.31;2069575;28;20336;-68
2022/12/08 02:56:15;;;;;;;2.42;1.30;;;;;;;19.15;68.95;96030.31;2070225;28;20291;-67
2022/12/08 02:57:34;;;;;;;1.73;1.15;;;;;;;19.15;69.23;96022.38;2070268;28;20221;-68
2022/12/08 02:59:18;;;;;;;2.05;1.30;;;;;;;19.15;69.08;96026.84;2070464;28;20602;-68
2022/12/08 03:00:22;;;;;;;1.50;1.00;;;;;;;19.14;69.30;96022.53;2066102;28;20290;-67
2022/12/08 03:01:48;;;;;;;4.22;1.40;;;;;;;19.13;69.09;96023.50;2069987;28;20198;-68
2022/12/08 03:03:08;;;;;;;1.85;1.15;;;;;;;19.13;69.01;96013.72;2070167;28;20363;-68
2022/12/08 03:04:21;;;;;;;2.20;1.38;;;;;;;19.14;69.04;96026.00;2070586;28;20198;-68
2022/12/08 03:05:31;;;;;;;2.53;1.20;;;;;;;19.14;69.21;96014.59;2071306;28;20210;-68
2022/12/08 03:06:37;;;;;;;1.90;1.20;;;;;;;19.11;69.22;96020.13;2069877;28;20225;-68
2022/12/08 03:07:54;;;;;;;2.22;1.13;;;;;;;19.13;69.24;96019.03;2069843;28;20190;-68
2022/12/08 03:09:09;;;;;;;1.65;1.20;;;;;;;19.09;69.29;96012.34;2069753;28;20234;-68
2022/12/08 03:10:28;;;;;;;2.40;1.50;;;;;;;19.12;69.10;96019.16;2070816;28;20193;-68
2022/12/08 03:11:39;;;;;;;2.88;1.70;;;;;;;19.11;69.06;96017.50;2068911;28;20217;-68
2022/12/08 03:12:51;;;;;;;2.90;1.40;;;;;;;19.13;69.29;96011.09;2067631;28;20285;-68
2022/12/08 03:14:00;;;;;;;2.22;1.20;;;;;;;19.13;69.32;96010.25;2070652;28;20193;-68
2022/12/08 03:15:08;;;;;;;2.75;1.20;;;;;;;19.13;69.24;96010.25;2071737;28;20209;-68
2022/12/08 03:16:13;;;;;;;3.10;1.50;;;;;;;19.12;69.24;96006.75;2071299;28;20229;-67
2022/12/08 03:17:19;;;;;;;2.10;1.10;;;;;;;19.05;69.25;95993.25;2070461;28;20209;-68
2022/12/08 03:18:25;;;;;;;1.92;1.27;;;;;;;19.09;69.21;95999.94;2068213;28;20281;-68
2022/12/08 03:19:33;;;;;;;2.00;1.10;;;;;;;19.07;69.27;96001.91;2070882;28;20277;-67
2022/12/08 03:20:35;;;;;;;2.08;1.17;;;;;;;19.08;69.00;95994.78;2071413;28;20583;-68
2022/12/08 03:21:38;;;;;;;1.67;1.25;;;;;;;19.07;69.33;95993.97;2069684;28;20324;-68
2022/12/08 03:22:40;;;;;;;1.95;1.08;;;;;;;19.10;69.18;95998.16;2068247;28;20320;-68
2022/12/08 03:23:45;;;;;;;2.92;1.10;;;;;;;19.06;69.24;95999.41;2068917;28;20289;-68
2022/12/08 03:24:48;;;;;;;2.13;1.00;;;;;;;19.05;69.19;95992.44;2070860;28;20197;-68
2022/12/08 03:25:57;;;;;;;2.42;1.45;;;;;;;19.04;69.34;95985.47;2071031;28;20202;-67
2022/12/08 03:27:02;;;;;;;2.00;1.20;;;;;;;19.06;69.17;95991.47;2069580;28;20221;-68
2022/12/08 03:28:05;;;;;;;2.75;1.40;;;;;;;19.04;69.21;95982.81;2061125;28;20294;-68
2022/12/08 03:29:06;;;;;;;1.90;1.20;;;;;;;19.09;69.21;95992.00;2068505;28;20245;-68
2022/12/08 03:30:09;;;;;;;1.52;1.00;;;;;;;19.08;69.21;95981.56;2068317;28;20690;-69
2022/12/08 03:31:13;;;;;;;1.80;1.10;;;;;;;19.12;69.30;95987.41;2068851;28;20211;-68
2022/12/08 03:32:59;;;;;;;1.30;1.00;;;;;;;19.10;69.29;95990.22;2069397;28;20205;-68
2022/12/08 03:34:01;;;;;;;1.50;1.13;;;;;;;19.06;69.29;95971.13;2060382;28;20233;-68
2022/12/08 03:35:08;;;;;;;1.95;1.10;;;;;;;19.11;69.05;95988.38;2060672;28;20206;-69
2022/12/08 03:36:11;;;;;;;1.70;1.10;;;;;;;19.12;69.00;95979.47;2059008;28;20207;-68
2022/12/08 03:37:13;;;;;;;2.25;1.40;;;;;;;19.11;69.21;95980.44;2058140;28;20912;-68
2022/12/08 03:38:16;;;;;;;2.20;1.40;;;;;;;19.14;69.09;95980.19;2059366;28;20285;-68
2022/12/08 03:39:21;;;;;;;2.10;1.27;;;;;;;19.13;68.91;95979.34;2053793;28;20363;-68
2022/12/08 03:40:22;;;;;;;1.90;1.30;;;;;;;19.15;68.83;95981.88;2054027;28;20682;-68
2022/12/08 03:41:24;;;;;;;1.92;1.20;;;;;;;19.08;68.88;95979.78;2060584;28;21090;-68
2022/12/08 03:42:25;;;;;;;2.05;1.20;;;;;;;19.13;68.87;95979.34;2061267;28;20308;-68
2022/12/08 03:43:27;;;;;;;1.60;1.05;;;;;;;19.09;68.96;95973.47;2060144;28;20211;-68
2022/12/08 03:44:28;;;;;;;1.42;0.90;;;;;;;19.12;68.86;95980.31;2060503;28;20281;-68
2022/12/08 03:45:30;;;;;;;1.77;1.00;;;;;;;19.09;68.93;95968.19;2059603;28;20206;-69
2022/12/08 03:46:32;;;;;;;5.13;1.25;;;;;;;19.09;69.09;95964.72;2059199;28;20225;-69
2022/12/08 03:47:33;;;;;;;1.70;1.40;;;;;;;19.05;68.94;95965.97;2059450;28;20293;-68
2022/12/08 03:48:34;;;;;;;2.30;1.35;;;;;;;19.10;69.05;95971.69;2059411;28;20423;-68
2022/12/08 03:49:36;;;;;;;1.60;1.10;;;;;;;19.09;69.17;95970.84;2052567;28;20365;-68
2022/12/08 03:50:40;;;;;;;2.13;1.40;;;;;;;19.11;68.93;95961.94;2053505;28;20745;-68
2022/12/08 03:51:41;;;;;;;1.92;1.20;;;;;;;19.11;69.10;95964.56;2053472;28;20266;-68
2022/12/08 03:52:43;;;;;;;2.28;1.30;;;;;;;19.09;69.09;95959.44;2050129;28;20207;-68
2022/12/08 03:53:45;;;;;;;3.05;1.00;;;;;;;19.11;68.88;95959.28;2061439;28;20725;-68
2022/12/08 03:54:47;;;;;;;2.70;1.60;;;;;;;19.02;68.99;95953.00;2060089;28;20205;-67
2022/12/08 03:55:48;;;;;;;1.90;1.30;;;;;;;19.07;69.03;95953.44;2053534;28;20295;-68
2022/12/08 03:56:49;;;;;;;2.13;1.20;;;;;;;19.06;68.94;95954.44;2067826;28;20312;-68
2022/12/08 03:57:51;;;;;;;2.15;1.20;;;;;;;19.08;69.07;95955.09;2069716;28;20202;-68
2022/12/08 03:58:53;;;;;;;1.98;1.10;;;;;;;19.07;69.07;95956.94;2062040;28;20252;-68
2022/12/08 03:59:55;;;;;;;1.90;1.20;;;;;;;19.08;69.06;95960.41;2062159;28;20245;-67
2022/12/08 04:00:56;;;;;;;2.35;1.20;;;;;;;19.03;69.11;95952.03;2063904;28;20984;-68
2022/12/08 04:01:57;;;;;;;3.40;1.30;;;;;;;19.09;69.03;95968.19;2060853;28;20218;-68
2022/12/08 04:03:03;;;;;;;1.40;1.10;;;;;;;19.07;68.92;95953.44;2061349;28;20218;-68
2022/12/08 04:04:05;;;;;;;3.15;1.50;;;;;;;19.02;68.92;95948.56;2062258;28;20201;-68
2022/12/08 04:05:06;;;;;;;2.05;1.40;;;;;;;19.11;69.10;95961.94;2063737;28;20190;-68
2022/12/08 04:06:08;;;;;;;1.73;0.93;;;;;;;19.08;69.13;95957.75;2071522;28;20708;-68
2022/12/08 04:07:09;;;;;;;2.08;1.27;;;;;;;19.06;69.22;95957.91;2080201;28;20312;-68
2022/12/08 04:08:11;;;;;;;1.88;1.08;;;;;;;19.05;69.08;95961.50;2080551;28;20228;-68
2022/12/08 04:09:13;;;;;;;1.88;1.20;;;;;;;19.05;69.23;95960.69;2070981;28;20204;-68
2022/12/08 04:10:15;;;;;;;1.40;1.00;;;;;;;19.07;69.25;95962.22;2071600;28;20221;-68
2022/12/08 04:11:17;;;;;;;1.63;1.02;;;;;;;19.01;69.13;95951.34;2078040;28;20220;-68
2022/12/08 04:12:21;;;;;;;1.35;0.98;;;;;;;19.08;69.08;95960.41;2077797;28;20201;-68
2022/12/08 04:13:23;;;;;;;1.77;1.00;;;;;;;19.06;69.18;95951.78;2071279;28;20194;-68
2022/12/08 04:14:24;;;;;;;1.60;1.10;;;;;;;19.05;69.12;95964.16;2075050;28;20198;-68
2022/12/08 04:15:26;;;;;;;1.85;1.15;;;;;;;18.99;69.20;95946.19;2074918;28;20201;-68
2022/12/08 04:16:27;;;;;;;1.70;0.98;;;;;;;19.06;69.01;95957.91;2069758;28;20822;-68
2022/12/08 04:17:29;;;;;;;1.88;1.25;;;;;;;19.07;68.98;95953.44;2072074;28;20682;-68
2022/12/08 04:18:31;;;;;;;2.30;1.20;;;;;;;19.09;68.93;95952.31;2072071;28;20201;-68
2022/12/08 04:19:33;;;;;;;2.05;1.10;;;;;;;19.08;68.93;95949.81;2072076;28;20210;-68
2022/12/08 04:20:38;;;;;;;1.42;1.00;;;;;;;19.04;68.88;95949.25;2071830;28;20664;-68
2022/12/08 04:21:40;;;;;;;1.73;1.05;;;;;;;19.08;69.06;95955.97;2071044;28;20224;-68
2022/12/08 04:22:41;;;;;;;1.80;1.20;;;;;;;19.07;69.10;95951.63;2070447;28;20837;-68
2022/12/08 04:23:43;;;;;;;1.98;1.00;;;;;;;19.07;68.86;95949.00;2069641;28;20882;-68
2022/12/08 04:24:48;;;;;;;1.90;1.25;;;;;;;19.08;68.88;95952.47;2072312;28;20201;-67
2022/12/08 04:25:51;;;;;;;1.55;1.00;;;;;;;19.08;68.79;95953.31;2072402;28;20653;-68
2022/12/08 04:26:52;;;;;;;1.90;1.40;;;;;;;19.07;68.80;95954.28;2071078;28;20593;-68
2022/12/08 04:27:55;;;;;;;1.65;1.20;;;;;;;18.99;68.75;95940.06;2070828;28;20205;-67
2022/12/08 04:28:56;;;;;;;1.70;1.10;;;;;;;19.04;68.88;95945.78;2070987;28;20198;-68
2022/12/08 04:29:58;;;;;;;1.90;1.10;;;;;;;19.06;68.82;95951.78;2071501;28;20213;-68
2022/12/08 04:30:59;;;;;;;1.75;1.17;;;;;;;19.07;68.74;95953.44;2073474;28;20336;-68
2022/12/08 04:32:01;;;;;;;1.50;1.10;;;;;;;19.05;68.77;95948.28;2074407;28;20225;-68
2022/12/08 04:33:02;;;;;;;1.75;1.13;;;;;;;19.07;68.92;95950.78;2071330;28;20205;-68
2022/12/08 04:34:04;;;;;;;2.75;1.05;;;;;;;19.07;68.86;95953.44;2071109;28;20204;-68
2022/12/08 04:35:05;;;;;;;1.65;1.00;;;;;;;19.04;68.73;95946.59;2071238;28;20638;-68
2022/12/08 04:36:07;;;;;;;2.40;1.20;;;;;;;19.06;68.69;95949.13;2071492;28;20672;-68
2022/12/08 04:37:09;;;;;;;1.80;1.10;;;;;;;19.06;68.77;95943.84;2071150;28;20202;-68
2022/12/08 04:38:10;;;;;;;1.80;1.10;;;;;;;19.07;68.60;95943.69;2071020;28;20842;-68
2022/12/08 04:39:12;;;;;;;2.92;1.35;;;;;;;19.03;68.79;95938.81;2067965;28;20692;-68
2022/12/08 04:40:13;;;;;;;1.60;0.93;;;;;;;19.05;68.71;95940.34;2069013;28;20202;-67
2022/12/08 04:41:15;;;;;;;1.50;1.10;;;;;;;19.07;68.46;95948.13;2070087;28;20209;-68
2022/12/08 04:42:16;;;;;;;1.58;1.10;;;;;;;19.06;68.73;95949.97;2071491;28;20756;-68
2022/12/08 04:43:18;;;;;;;2.08;1.27;;;;;;;18.99;68.53;95935.59;2072482;28;20232;-67
2022/12/08 04:44:19;;;;;;;1.83;1.20;;;;;;;18.96;68.51;95925.31;2071858;28;20204;-68
2022/12/08 04:45:21;;;;;;;1.73;1.20;;;;;;;19.06;68.59;95944.66;2069605;28;20213;-68
2022/12/08 04:46:22;;;;;;;1.52;1.10;;;;;;;19.05;68.61;95935.06;2070284;28;20198;-68
2022/12/08 04:47:23;;;;;;;2.33;1.23;;;;;;;19.05;68.65;95942.16;2070521;28;20295;-68
2022/12/08 04:48:25;;;;;;;2.47;1.27;;;;;;;19.05;68.77;95940.34;2068464;28;20724;-68
2022/12/08 04:49:26;;;;;;;1.45;0.85;;;;;;;19.04;68.67;95932.56;2070961;28;20572;-68
2022/12/08 04:50:28;;;;;;;2.15;1.30;;;;;;;19.06;68.50;95938.56;2071317;28;20502;-68
2022/12/08 04:51:29;;;;;;;2.33;1.20;;;;;;;19.02;68.76;95938.00;2069236;28;20368;-68
2022/12/08 04:52:31;;;;;;;2.67;1.13;;;;;;;18.97;68.94;95924.34;2070247;28;20285;-68
2022/12/08 04:53:59;;;;;;;2.40;1.40;;;;;;;19.04;68.75;95936.03;2075050;28;20260;-68
2022/12/08 04:55:02;;;;;;;1.35;1.08;;;;;;;19.03;68.72;95929.09;2073891;28;20269;-68
2022/12/08 04:56:04;;;;;;;3.65;1.67;;;;;;;19.05;68.61;95939.53;2071729;28;20564;-68
2022/12/08 04:57:05;;;;;;;1.75;1.30;;;;;;;19.06;68.75;95934.09;2071747;28;20285;-68
2022/12/08 04:58:15;;;;;;;2.00;1.13;;;;;;;19.06;68.73;95934.09;2070722;28;20205;-67
2022/12/08 04:59:16;;;;;;;2.67;1.27;;;;;;;19.04;68.59;95932.56;2070685;28;20194;-68
2022/12/08 05:00:18;;;;;;;2.00;1.30;;;;;;;19.07;68.74;95930.47;2072334;28;20209;-68
2022/12/08 05:01:20;;;;;;;1.90;1.10;;;;;;;19.08;68.35;95937.44;2071087;28;20199;-68
2022/12/08 05:02:21;;;;;;;3.13;1.10;;;;;;;19.00;68.67;95918.75;2070024;28;20217;-68
2022/12/08 05:03:23;;;;;;;2.83;1.38;;;;;;;19.09;68.57;95936.44;2071340;28;20194;-68
2022/12/08 05:04:29;;;;;;;1.60;1.17;;;;;;;19.10;68.63;95937.28;2071778;28;20202;-68
2022/12/08 05:05:34;;;;;;;1.85;1.05;;;;;;;19.11;68.50;95940.75;2069914;28;20206;-68
2022/12/08 05:06:35;;;;;;;2.25;1.10;;;;;;;19.10;68.55;95937.28;2069303;28;20240;-68
2022/12/08 05:07:37;;;;;;;1.80;1.13;;;;;;;19.08;68.44;95932.16;2071607;28;20701;-68
2022/12/08 05:08:39;;;;;;;1.33;0.90;;;;;;;19.07;68.46;95930.47;2072438;28;20205;-73
2022/12/08 05:09:41;;;;;;;1.52;0.90;;;;;;;18.93;68.48;95905.25;2071813;28;20202;-73
2022/12/08 05:10:43;;;;;;;1.70;1.00;;;;;;;18.99;68.56;95925.00;2070924;28;20786;-73
2022/12/08 05:11:44;;;;;;;1.63;1.08;;;;;;;18.99;68.70;95927.66;2070368;28;20213;-73
2022/12/08 05:12:49;;;;;;;1.90;1.35;;;;;;;18.94;68.83;95927.25;2068792;28;20204;-73